This is the latest recevied weather packets stored in our database for station/object N5ZP. If no packets are shown the sender has not sent any weather packets the latest 10 day(s).
| Time | Temp. | Humidity | Pressure | Rain* | Wind** | Luminosity | Snow |
|---|---|---|---|---|---|---|---|
| 1777488056 | 16.67° C | 75% | 1012.7 hPa | 0 mm | - | 171 W/m² | - |
| 1777487753 | 16.67° C | 76% | 1012.8 hPa | 0 mm | - | 139 W/m² | - |
| 1777487451 | 16.67° C | 77% | 1012.6 hPa | 0 mm | - | 218 W/m² | - |
| 1777487148 | 16.67° C | 77% | 1012.8 hPa | 0 mm | - | 155 W/m² | - |
| 1777486844 | 16.67° C | 77% | 1012.8 hPa | 0 mm | - | 193 W/m² | - |
| 1777486541 | 16.11° C | 77% | 1013.3 hPa | 0 mm | - | 140 W/m² | - |
| 1777486239 | 16.11° C | 77% | 1013.3 hPa | 0 mm | - | 159 W/m² | - |
| 1777485936 | 16.11° C | 77% | 1013.4 hPa | 0 mm | - | 89 W/m² | - |
| 1777485632 | 16.11° C | 76% | 1013 hPa | 0 mm | - | 130 W/m² | - |
| 1777485327 | 16.11° C | 77% | 1013.2 hPa | 0 mm | - | 178 W/m² | - |
| 1777485024 | 16.11° C | 78% | 1013.3 hPa | 0 mm | - | 150 W/m² | - |
| 1777484721 | 16.11° C | 78% | 1013.4 hPa | 0 mm | - | 153 W/m² | - |
| 1777484418 | 16.11° C | 76% | 1013.5 hPa | 0 mm | - | 134 W/m² | - |
| 1777484115 | 16.11° C | 78% | 1013.7 hPa | 0 mm | - | 161 W/m² | - |
| 1777483810 | 16.11° C | 79% | 1013.8 hPa | 0 mm | - | 156 W/m² | - |
| 1777483502 | 15.56° C | 78% | 1013.8 hPa | 0 mm | - | 125 W/m² | - |
| 1777483201 | 15.56° C | 79% | 1014 hPa | 0 mm | - | 94 W/m² | - |
| 1777482899 | 15.56° C | 80% | 1014 hPa | 0 mm | - | 97 W/m² | - |
| 1777482594 | 15.56° C | 80% | 1013.9 hPa | 0 mm | - | 77 W/m² | - |
| 1777482292 | 15.56° C | 79% | 1013.8 hPa | 0 mm | - | 65 W/m² | - |
| 1777481989 | 15.56° C | 80% | 1013.7 hPa | 0 mm | - | 77 W/m² | - |
| 1777481687 | 15.56° C | 80% | 1013.6 hPa | 0 mm | - | 95 W/m² | - |
| 1777481383 | 15.56° C | 80% | 1013.5 hPa | 0 mm | - | 110 W/m² | - |
| 1777481079 | 15° C | 80% | 1013.3 hPa | 0 mm | - | 111 W/m² | - |
| 1777480776 | 15° C | 80% | 1013.6 hPa | 0 mm | - | 94 W/m² | - |
* Rain latest hour (hover to see other rain measurements)
** Current wind speed in m/s (hover to see current wind gust speed)